createdAt,value
2018-03-02T00:01:13.478Z,14.27
2018-03-02T00:03:43.367Z,15.20
2018-03-02T00:06:12.459Z,12.68
2018-03-02T00:08:41.586Z,15.32
2018-03-02T00:11:10.722Z,13.90
2018-03-02T00:13:39.817Z,14.93
2018-03-02T00:16:09.701Z,15.57
2018-03-02T00:18:38.790Z,14.32
2018-03-02T00:21:08.646Z,13.88
2018-03-02T00:23:37.767Z,14.43
2018-03-02T00:26:06.902Z,15.18
2018-03-02T00:28:35.994Z,15.40
2018-03-02T00:31:05.084Z,14.25
2018-03-02T00:33:34.322Z,14.95
2018-03-02T00:36:03.771Z,14.90
2018-03-02T00:38:32.910Z,15.85
2018-03-02T00:41:02.774Z,13.55
2018-03-02T00:43:31.865Z,15.30
2018-03-02T00:46:00.958Z,15.05
2018-03-02T00:48:30.945Z,15.13
2018-03-02T00:51:00.078Z,15.23
2018-03-02T00:53:29.166Z,14.48
2018-03-02T00:55:58.265Z,15.50
2018-03-02T00:58:27.377Z,14.48
2018-03-02T01:00:56.517Z,14.27
2018-03-02T01:03:25.613Z,15.63
2018-03-02T01:05:54.802Z,14.75
2018-03-02T01:08:23.889Z,15.20
2018-03-02T01:10:53.014Z,15.40
2018-03-02T01:13:22.128Z,15.30
2018-03-02T01:15:51.246Z,16.98
2018-03-02T01:18:20.334Z,15.30
2018-03-02T01:20:49.421Z,15.75
2018-03-02T01:23:19.526Z,16.55
2018-03-02T01:25:48.833Z,15.05
2018-03-02T01:28:17.953Z,17.52
2018-03-02T01:30:47.078Z,15.32
2018-03-02T01:33:17.018Z,15.68
2018-03-02T01:35:46.890Z,16.85
2018-03-02T01:38:15.996Z,17.15
2018-03-02T01:40:45.102Z,16.30
2018-03-02T01:43:14.201Z,16.55
2018-03-02T01:45:43.341Z,15.23
2018-03-02T01:48:12.554Z,16.95
2018-03-02T01:50:41.680Z,15.35
2018-03-02T01:53:10.789Z,17.70
2018-03-02T01:55:39.878Z,15.55
2018-03-02T01:58:09.162Z,14.45
2018-03-02T02:00:39.017Z,15.07
2018-03-02T02:03:08.138Z,15.57
2018-03-02T02:05:37.301Z,18.23
2018-03-02T02:08:07.157Z,15.23
2018-03-02T02:10:36.263Z,16.60
2018-03-02T02:13:05.602Z,16.45
2018-03-02T02:15:34.698Z,15.60
2018-03-02T02:18:03.827Z,16.30
2018-03-02T02:20:32.934Z,17.30
2018-03-02T02:23:02.031Z,17.50
2018-03-02T02:25:31.190Z,16.50
2018-03-02T02:28:00.290Z,17.25
2018-03-02T02:30:29.450Z,18.10
2018-03-02T02:32:58.582Z,18.70
2018-03-02T02:35:27.687Z,17.80
2018-03-02T02:37:56.781Z,17.70
2018-03-02T02:40:25.875Z,18.02
2018-03-02T02:42:55.781Z,17.40
2018-03-02T02:45:24.897Z,18.87
2018-03-02T02:47:54.787Z,18.67
2018-03-02T02:50:24.154Z,16.75
2018-03-02T02:52:54.054Z,17.58
2018-03-02T02:55:23.149Z,18.90
2018-03-02T02:57:52.245Z,17.30
2018-03-02T03:00:21.340Z,17.35
2018-03-02T03:02:50.501Z,17.48
2018-03-02T03:05:19.594Z,17.60
2018-03-02T03:07:48.689Z,18.20
2018-03-02T03:10:17.805Z,19.15
2018-03-02T03:12:46.924Z,17.98
2018-03-02T03:15:16.094Z,18.62
2018-03-02T03:17:45.190Z,17.73
2018-03-02T03:20:15.046Z,19.25
2018-03-02T03:22:44.137Z,18.20
2018-03-02T03:25:13.998Z,17.62
2018-03-02T03:27:43.090Z,18.87
2018-03-02T03:30:12.229Z,19.12
2018-03-02T03:32:41.323Z,17.87
2018-03-02T03:35:10.417Z,18.30
2018-03-02T03:37:39.517Z,18.45
2018-03-02T03:40:09.589Z,18.75
2018-03-02T03:42:38.686Z,16.40
2018-03-02T03:45:07.831Z,17.30
2018-03-02T03:47:37.005Z,17.35
2018-03-02T03:50:06.155Z,19.42
2018-03-02T03:52:35.248Z,16.73
2018-03-02T03:55:04.377Z,18.30
2018-03-02T03:57:33.525Z,16.65
2018-03-02T04:00:03.507Z,18.58
2018-03-02T04:02:32.605Z,18.55
2018-03-02T04:05:01.702Z,18.27
2018-03-02T04:07:30.807Z,19.00
2018-03-02T04:09:59.956Z,17.95
2018-03-02T04:12:29.051Z,18.27
2018-03-02T04:14:58.150Z,18.20
2018-03-02T04:17:27.246Z,18.90
2018-03-02T04:19:56.341Z,16.75
2018-03-02T04:22:26.225Z,19.48
2018-03-02T04:24:55.377Z,17.45
2018-03-02T04:27:25.258Z,17.42
2018-03-02T04:29:54.357Z,18.75
2018-03-02T04:32:23.495Z,16.85
2018-03-02T04:34:52.627Z,17.98
2018-03-02T04:37:21.723Z,18.17
2018-03-02T04:39:50.825Z,18.08
2018-03-02T04:42:20.017Z,17.65
2018-03-02T04:44:49.114Z,17.62
2018-03-02T04:47:18.273Z,17.70
2018-03-02T04:49:47.370Z,18.50
2018-03-02T04:52:16.518Z,19.02
2018-03-02T04:54:46.353Z,19.65
2018-03-02T04:57:15.608Z,17.50
2018-03-02T04:59:44.698Z,21.58
2018-03-02T05:02:13.844Z,20.00
2018-03-02T05:04:42.941Z,20.90
2018-03-02T05:07:12.142Z,19.40
2018-03-02T05:09:41.233Z,17.50
2018-03-02T05:12:10.358Z,20.33
2018-03-02T05:14:39.453Z,19.02
2018-03-02T05:17:08.622Z,19.58
2018-03-02T05:19:37.781Z,18.12
2018-03-02T05:22:06.909Z,17.85
2018-03-02T05:24:36.006Z,18.37
2018-03-02T05:27:05.097Z,19.02
2018-03-02T05:29:34.225Z,19.33
2018-03-02T05:32:03.325Z,18.33
2018-03-02T05:34:32.461Z,19.65
2018-03-02T05:37:01.561Z,20.12
2018-03-02T05:39:30.661Z,18.27
2018-03-02T05:41:59.814Z,17.85
2018-03-02T05:44:28.934Z,19.30
2018-03-02T05:46:58.025Z,19.10
2018-03-02T05:49:27.193Z,20.92
2018-03-02T05:51:56.289Z,20.65
2018-03-02T05:54:26.146Z,19.92
2018-03-02T05:56:55.342Z,20.33
2018-03-02T05:59:24.433Z,20.02
2018-03-02T06:01:54.297Z,19.08
2018-03-02T06:04:23.389Z,21.10
2018-03-02T06:06:52.525Z,20.60
2018-03-02T06:09:21.617Z,25.77
2018-03-02T06:11:50.748Z,22.55
2018-03-02T06:14:19.965Z,21.00
2018-03-02T06:16:49.057Z,20.10
2018-03-02T06:19:18.150Z,19.77
2018-03-02T06:21:47.245Z,19.55
2018-03-02T06:24:17.105Z,21.00
2018-03-02T06:26:46.205Z,21.10
2018-03-02T06:29:15.333Z,20.33
2018-03-02T06:31:44.430Z,19.80
2018-03-02T06:34:13.549Z,25.33
2018-03-02T06:36:42.641Z,25.73
2018-03-02T06:39:12.565Z,21.77
2018-03-02T06:41:42.454Z,21.15
2018-03-02T06:44:11.577Z,19.77
2018-03-02T06:46:40.666Z,20.25
